Time;durP1;ratioP1;P1;durP2;ratioP2;P2;SDS_P1;SDS_P2;PMS_P1;PMS_P2;Temp;Humidity;BMP_temperature;BMP_pressure;BME280_temperature;BME280_humidity;BME280_pressure;Samples;Min_cycle;Max_cycle;Signal;HPM_P1;HPM_P2
2022/11/09 11:34:36;;;;;;;28.97;3.47;;;;;;;17.15;100.00;100765.91;6162792;22;1317814;-66
2022/11/09 11:37:14;;;;;;;22.90;2.90;;;;;;;17.13;100.00;100768.00;6189197;23;20247;-67
2022/11/09 11:41:25;;;;;;;43.33;3.22;;;;;;;17.24;100.00;100771.94;5097881;27;20401;-71
2022/11/09 11:44:04;;;;;;;23.15;3.10;;;;;;;17.17;100.00;100783.78;5093784;28;20472;-69
2022/11/09 11:46:47;;;;;;;18.73;2.88;;;;;;;17.09;100.00;100772.16;5103897;28;20386;-69
2022/11/09 11:49:31;;;;;;;14.00;2.72;;;;;;;17.01;100.00;100782.34;5105661;28;20327;-69
2022/11/09 11:52:27;;;;;;;13.48;2.83;;;;;;;16.96;100.00;100777.53;5107574;28;20020;-73
2022/11/09 11:55:24;;;;;;;21.95;3.38;;;;;;;16.91;100.00;100772.75;5082827;28;20024;-66
2022/11/09 11:58:33;;;;;;;21.08;3.20;;;;;;;16.87;100.00;100765.25;5079164;28;20020;-66
2022/11/09 12:01:02;;;;;;;21.13;3.05;;;;;;;16.85;100.00;100768.16;5088077;28;20483;-66
2022/11/09 12:03:30;;;;;;;23.73;3.15;;;;;;;16.83;100.00;100769.38;5090862;28;20059;-66
2022/11/09 12:06:20;;;;;;;18.60;3.17;;;;;;;16.81;100.00;100768.75;5087846;28;20032;-66
2022/11/09 12:09:10;;;;;;;21.85;3.83;;;;;;;16.77;100.00;100766.47;5087822;28;20079;-66
2022/11/09 12:11:52;;;;;;;17.42;3.03;;;;;;;16.74;100.00;100756.09;5087880;28;20016;-66
2022/11/09 12:14:26;;;;;;;13.85;3.03;;;;;;;16.72;100.00;100760.03;5087802;28;20025;-66
2022/11/09 12:17:17;;;;;;;16.80;2.90;;;;;;;16.72;100.00;100754.66;5076571;28;20050;-66
2022/11/09 12:20:09;;;;;;;21.35;2.85;;;;;;;16.69;100.00;100758.56;5085865;28;20013;-66
2022/11/09 12:22:42;;;;;;;28.38;3.45;;;;;;;16.66;100.00;100750.88;5107313;28;20032;-66
2022/11/09 12:25:17;;;;;;;18.65;3.20;;;;;;;16.67;100.00;100749.03;5128304;28;20051;-66
2022/11/09 12:27:48;;;;;;;23.55;3.33;;;;;;;16.64;100.00;100750.25;5128590;28;20040;-66
2022/11/09 12:30:23;;;;;;;25.02;3.25;;;;;;;16.63;100.00;100751.28;5128359;28;20016;-66
2022/11/09 12:32:58;;;;;;;13.02;2.90;;;;;;;16.63;100.00;100763.94;5128460;28;20020;-66
2022/11/09 12:35:39;;;;;;;14.32;2.90;;;;;;;16.63;100.00;100767.47;5128295;28;20042;-66
2022/11/09 12:38:14;;;;;;;14.00;3.03;;;;;;;16.63;100.00;100770.16;5128254;28;20031;-66
2022/11/09 12:40:50;;;;;;;17.55;3.15;;;;;;;16.62;100.00;100775.78;5117947;28;20544;-66
2022/11/09 12:43:24;;;;;;;25.60;3.20;;;;;;;16.60;100.00;100779.50;5122191;28;20023;-67
2022/11/09 12:45:51;;;;;;;13.40;2.70;;;;;;;16.64;100.00;100776.41;5109035;28;20046;-66
2022/11/09 12:48:24;;;;;;;15.40;3.20;;;;;;;16.66;100.00;100768.94;5128366;28;20140;-66
2022/11/09 12:50:51;;;;;;;19.42;3.50;;;;;;;16.70;100.00;100791.75;5122247;28;20039;-66
2022/11/09 12:53:20;;;;;;;14.82;2.60;;;;;;;16.72;100.00;100773.53;5114393;28;20059;-66
2022/11/09 12:56:09;;;;;;;13.43;3.03;;;;;;;16.77;100.00;100774.56;5114093;28;20031;-66
2022/11/09 12:58:36;;;;;;;15.73;2.60;;;;;;;16.78;100.00;100775.38;5103108;28;20028;-66
2022/11/09 13:01:08;;;;;;;12.05;2.80;;;;;;;16.81;100.00;100776.84;5112683;28;20129;-66
2022/11/09 13:03:37;;;;;;;17.10;2.90;;;;;;;16.83;100.00;100774.78;5114117;28;20024;-66
2022/11/09 13:06:32;;;;;;;14.23;2.60;;;;;;;16.85;100.00;100783.53;5113943;28;20020;-66
2022/11/09 13:09:18;;;;;;;13.30;2.97;;;;;;;16.85;100.00;100784.34;5113177;28;20035;-66
2022/11/09 13:11:47;;;;;;;17.63;3.03;;;;;;;16.84;100.00;100788.09;5091029;28;20047;-66
2022/11/09 13:14:21;;;;;;;15.32;2.88;;;;;;;16.81;100.00;100785.78;5114030;28;20016;-66
2022/11/09 13:16:56;;;;;;;12.13;2.63;;;;;;;16.79;100.00;100798.63;5113908;28;20594;-66
2022/11/09 13:19:33;;;;;;;14.32;2.70;;;;;;;16.77;100.00;100803.41;5105017;28;20031;-66
2022/11/09 13:22:19;;;;;;;13.80;2.60;;;;;;;16.75;100.00;100795.53;5099216;28;20023;-66
2022/11/09 13:25:01;;;;;;;12.98;2.60;;;;;;;16.73;100.00;100802.13;5113253;28;20067;-66
2022/11/09 13:27:33;;;;;;;16.48;2.78;;;;;;;16.71;100.00;100815.81;5071511;28;20032;-66
2022/11/09 13:30:00;;;;;;;16.83;3.13;;;;;;;16.67;99.85;100813.75;5113438;28;20027;-66
2022/11/09 13:32:32;;;;;;;12.65;2.50;;;;;;;16.67;100.00;100816.44;5095291;28;20403;-66
2022/11/09 13:34:59;;;;;;;15.38;3.15;;;;;;;16.68;99.73;100810.81;5113481;28;20024;-66
2022/11/09 13:37:39;;;;;;;14.75;3.00;;;;;;;16.71;100.00;100812.28;5113690;28;20440;-66
2022/11/09 13:40:29;;;;;;;16.87;2.90;;;;;;;16.72;100.00;100814.78;5101851;28;20089;-66
2022/11/09 13:43:06;;;;;;;16.27;3.17;;;;;;;16.73;100.00;100815.63;5106764;28;20023;-66
2022/11/09 13:45:34;;;;;;;13.75;2.75;;;;;;;16.74;99.84;100814.59;5112335;28;20051;-66
2022/11/09 13:48:00;;;;;;;17.15;2.85;;;;;;;16.75;99.70;100822.47;5113362;28;20031;-66
2022/11/09 13:50:28;;;;;;;13.35;2.63;;;;;;;16.78;99.49;100827.47;5112874;28;20023;-66
2022/11/09 13:52:57;;;;;;;17.48;2.55;;;;;;;16.83;98.92;100829.56;5113166;28;20020;-66
2022/11/09 13:55:30;;;;;;;10.25;2.92;;;;;;;16.87;99.37;100827.31;5113256;28;20050;-66
2022/11/09 13:58:01;;;;;;;12.68;2.50;;;;;;;17.55;96.80;100820.97;5107086;28;20043;-66
2022/11/09 14:00:26;;;;;;;11.27;2.53;;;;;;;17.97;94.62;100827.00;5106377;28;20020;-66
2022/11/09 14:03:01;;;;;;;10.02;2.58;;;;;;;18.61;91.46;100828.06;5103614;28;20180;-66
2022/11/09 14:05:31;;;;;;;11.70;2.70;;;;;;;18.27;91.93;100830.88;5066160;28;20044;-65
2022/11/09 14:08:00;;;;;;;11.30;2.83;;;;;;;17.98;92.96;100843.00;5102995;28;20095;-65
2022/11/09 14:10:50;;;;;;;15.63;2.95;;;;;;;17.73;94.70;100848.19;5108951;28;20030;-65
2022/11/09 14:13:34;;;;;;;15.35;2.70;;;;;;;17.49;95.75;100847.75;5107750;28;20034;-65
2022/11/09 14:16:24;;;;;;;10.68;2.80;;;;;;;17.32;96.37;100857.31;5072514;28;20538;-65
2022/11/09 14:19:12;;;;;;;14.80;3.22;;;;;;;17.19;97.07;100854.56;5073350;28;20024;-65
2022/11/09 14:21:51;;;;;;;13.57;2.55;;;;;;;17.09;97.26;100858.50;5106408;28;20072;-65
2022/11/09 14:24:22;;;;;;;10.90;2.80;;;;;;;17.01;97.66;100866.78;5096803;28;20028;-65
2022/11/09 14:27:06;;;;;;;;;;;;;;;17.02;97.89;100879.22;5109581;28;20016;-66
2022/11/09 14:29:34;;;;;;;11.50;2.00;;;;;;;16.93;98.27;100875.06;5105762;28;19908;-66
2022/11/09 14:32:19;;;;;;;14.63;2.72;;;;;;;16.87;98.58;100876.72;5107955;28;20104;-66
2022/11/09 14:34:44;;;;;;;7.53;2.63;;;;;;;16.85;98.66;100880.63;5107202;28;20034;-66
2022/11/09 14:37:12;;;;;;;9.35;2.33;;;;;;;16.81;99.07;100880.16;5103758;28;20031;-65
2022/11/09 14:39:38;;;;;;;11.85;2.60;;;;;;;16.77;99.05;100873.53;5099248;28;20094;-66
2022/11/09 14:42:05;;;;;;;9.50;2.40;;;;;;;16.76;99.31;100888.84;5091520;28;20032;-66
2022/11/09 14:44:41;;;;;;;15.48;2.97;;;;;;;16.72;99.55;100881.41;5091561;28;20043;-66
2022/11/09 14:47:15;;;;;;;13.75;2.53;;;;;;;16.69;99.66;100887.19;5073241;28;20030;-66
2022/11/09 14:49:41;;;;;;;7.38;2.67;;;;;;;16.67;99.78;100886.56;5091387;28;20012;-66
2022/11/09 14:52:14;;;;;;;11.10;2.30;;;;;;;16.65;99.41;100888.59;5091274;28;20039;-65
2022/11/09 14:54:39;;;;;;;13.80;2.60;;;;;;;16.63;100.00;100894.19;5091604;28;20027;-65
2022/11/09 14:57:05;;;;;;;14.95;2.63;;;;;;;16.62;100.00;100897.94;5103160;28;20440;-65
2022/11/09 14:59:34;;;;;;;13.10;2.63;;;;;;;16.61;100.00;100896.25;5101636;28;20400;-65
2022/11/09 15:02:04;;;;;;;14.68;2.40;;;;;;;16.58;100.00;100902.91;5101472;28;20029;-65
2022/11/09 15:04:52;;;;;;;10.90;2.30;;;;;;;16.58;100.00;100916.38;5105580;28;20669;-65
2022/11/09 15:07:21;;;;;;;9.43;2.20;;;;;;;16.55;100.00;100908.69;5101049;28;20011;-65
2022/11/09 15:09:49;;;;;;;13.30;2.80;;;;;;;16.55;100.00;100911.38;5101974;28;20106;-66
2022/11/09 15:12:17;;;;;;;7.90;2.58;;;;;;;16.55;100.00;100919.47;5098443;28;20031;-65
2022/11/09 15:15:05;;;;;;;11.00;2.47;;;;;;;16.53;100.00;100916.16;5090735;28;20096;-65
2022/11/09 15:17:36;;;;;;;7.90;2.28;;;;;;;16.52;100.00;100919.03;5086828;28;20025;-65
2022/11/09 15:20:27;;;;;;;9.70;2.60;;;;;;;16.51;100.00;100915.50;5090822;28;20498;-65
2022/11/09 15:22:58;;;;;;;11.27;2.33;;;;;;;16.51;100.00;100926.28;5103838;28;20068;-65
2022/11/09 15:25:30;;;;;;;9.18;2.33;;;;;;;16.48;100.00;100926.69;5111400;28;20069;-65
2022/11/09 15:28:07;;;;;;;;;;;;;;;16.51;100.00;100925.44;5104959;28;20035;-66
2022/11/09 15:30:35;;;;;;;10.23;2.13;;;;;;;16.50;100.00;100934.59;5102765;28;19908;-66
2022/11/09 15:33:16;;;;;;;11.40;2.40;;;;;;;16.49;100.00;100930.22;5102891;28;20032;-66
2022/11/09 15:36:22;;;;;;;12.65;2.80;;;;;;;16.51;100.00;100947.00;5084172;28;20038;-65
2022/11/09 15:38:57;;;;;;;11.55;2.10;;;;;;;16.54;100.00;100950.16;5066219;28;20052;-66
2022/11/09 15:41:23;;;;;;;10.40;2.30;;;;;;;16.59;100.00;100945.00;5089583;28;20082;-65
2022/11/09 15:43:49;;;;;;;5.32;2.03;;;;;;;16.66;100.00;100953.13;5099138;28;20056;-65
2022/11/09 15:46:18;;;;;;;8.55;2.30;;;;;;;16.75;100.00;100949.25;5100900;28;20120;-65
2022/11/09 15:48:44;;;;;;;15.20;2.70;;;;;;;16.86;100.00;100955.13;5090909;28;20027;-65
2022/11/09 15:51:10;;;;;;;13.63;2.22;;;;;;;16.94;100.00;100954.97;5077852;28;20029;-66
2022/11/09 15:53:36;;;;;;;16.85;2.40;;;;;;;17.05;100.00;100961.66;5072277;28;20080;-65
2022/11/09 15:56:02;;;;;;;13.73;2.30;;;;;;;17.17;100.00;100965.44;5090583;28;20032;-65
2022/11/09 15:58:27;;;;;;;10.23;2.13;;;;;;;17.35;100.00;100972.97;5072279;28;20076;-66
2022/11/09 16:00:52;;;;;;;10.23;2.20;;;;;;;17.53;100.00;100973.25;5090482;28;20055;-67
2022/11/09 16:03:18;;;;;;;10.65;2.40;;;;;;;17.73;99.39;100983.25;5086150;28;20488;-67
2022/11/09 16:05:44;;;;;;;9.27;1.85;;;;;;;17.94;98.70;100989.53;5090765;28;20097;-67
2022/11/09 16:08:10;;;;;;;8.02;2.42;;;;;;;18.13;97.98;100988.72;5077563;28;20070;-67
2022/11/09 16:10:38;;;;;;;9.98;1.95;;;;;;;18.39;96.72;100993.28;5090581;28;20036;-67
2022/11/09 16:13:05;;;;;;;6.43;1.70;;;;;;;18.66;95.80;100993.25;5090622;28;20345;-67
2022/11/09 16:15:31;;;;;;;9.77;2.20;;;;;;;18.91;94.59;100998.84;5090533;28;20035;-67
2022/11/09 16:17:57;;;;;;;9.32;2.00;;;;;;;19.15;93.66;100993.78;5086052;28;20020;-66
2022/11/09 16:20:22;;;;;;;7.35;2.00;;;;;;;19.42;92.43;100993.66;5090289;28;20455;-67
2022/11/09 16:22:48;;;;;;;8.45;2.00;;;;;;;19.63;91.40;100998.75;5102608;28;20043;-67
2022/11/09 16:25:14;;;;;;;5.88;1.88;;;;;;;19.86;90.25;101003.63;5093982;28;20028;-67
2022/11/09 16:27:40;;;;;;;6.57;1.92;;;;;;;20.02;89.47;100998.72;5094337;28;20457;-67
2022/11/09 16:30:07;;;;;;;13.45;1.92;;;;;;;20.15;88.54;101006.78;5094271;28;20099;-67
2022/11/09 16:32:34;;;;;;;5.10;1.55;;;;;;;20.21;88.05;101015.91;5093107;28;20032;-67
2022/11/09 16:34:59;;;;;;;5.75;1.63;;;;;;;20.32;87.38;101012.47;5094115;28;20438;-67
2022/11/09 16:37:26;;;;;;;5.63;1.80;;;;;;;20.42;86.82;101020.94;5094030;28;20111;-67
2022/11/09 16:39:51;;;;;;;8.02;1.65;;;;;;;20.50;86.27;101023.38;5092759;28;20059;-67
2022/11/09 16:42:17;;;;;;;8.00;2.10;;;;;;;20.58;85.66;101022.25;5092665;28;20863;-67
2022/11/09 16:44:45;;;;;;;10.18;1.73;;;;;;;20.63;85.01;101027.84;5079873;28;20506;-67
2022/11/09 16:47:15;;;;;;;7.35;1.77;;;;;;;20.71;84.81;101037.63;5095777;28;20110;-67
2022/11/09 16:49:40;;;;;;;7.80;1.58;;;;;;;20.75;84.29;101043.41;5084427;28;20472;-67
2022/11/09 16:52:06;;;;;;;9.13;1.80;;;;;;;20.78;84.01;101040.25;5098654;28;20032;-67
2022/11/09 16:54:31;;;;;;;8.73;1.90;;;;;;;20.79;83.78;101050.91;5093354;28;20106;-67
2022/11/09 16:56:57;;;;;;;6.30;1.60;;;;;;;20.78;83.46;101054.66;5085321;28;20471;-67
2022/11/09 16:59:23;;;;;;;8.27;1.80;;;;;;;20.78;83.35;101067.41;5107683;28;20088;-67
2022/11/09 17:01:52;;;;;;;7.15;1.60;;;;;;;20.76;83.28;101069.53;5093587;28;20028;-67
2022/11/09 17:04:18;;;;;;;5.90;1.70;;;;;;;20.73;83.08;101080.81;5091048;28;20035;-67
2022/11/09 17:06:44;;;;;;;5.72;1.60;;;;;;;20.66;83.29;101081.69;5075772;28;20360;-67
2022/11/09 17:09:09;;;;;;;8.57;1.77;;;;;;;20.63;83.19;101086.75;5093511;28;20024;-67
2022/11/09 17:11:35;;;;;;;6.25;1.75;;;;;;;20.58;83.21;101097.41;5092230;28;20031;-67
2022/11/09 17:14:00;;;;;;;7.63;1.40;;;;;;;20.53;83.07;101098.06;5094979;28;20122;-67
2022/11/09 17:16:26;;;;;;;8.88;1.77;;;;;;;20.47;83.44;101102.50;5097396;28;20058;-66
2022/11/09 17:18:53;;;;;;;9.07;1.75;;;;;;;20.36;82.10;101105.91;5072560;28;20063;-67
2022/11/09 17:21:20;;;;;;;8.93;1.77;;;;;;;20.28;82.75;101109.72;5082660;28;20090;-67
2022/11/09 17:23:45;;;;;;;12.40;1.88;;;;;;;20.21;83.23;101124.38;5102375;28;20149;-67
2022/11/09 17:26:11;;;;;;;11.43;1.83;;;;;;;20.16;83.87;101130.44;5101404;28;20024;-67
2022/11/09 17:28:37;;;;;;;9.00;1.98;;;;;;;20.10;83.95;101129.44;5093299;28;20466;-67
2022/11/09 17:31:14;;;;;;;7.80;1.80;;;;;;;20.06;85.05;101138.22;5092879;28;20024;-67
2022/11/09 17:33:40;;;;;;;10.43;1.73;;;;;;;19.97;84.57;101140.34;5092283;28;20288;-67
2022/11/09 17:36:08;;;;;;;9.88;1.90;;;;;;;19.92;84.79;101153.72;5092074;28;20073;-67
2022/11/09 17:38:33;;;;;;;8.23;1.83;;;;;;;19.88;85.33;101158.75;5091382;28;20073;-67
2022/11/09 17:41:04;;;;;;;9.52;1.70;;;;;;;19.84;85.51;101156.69;5086969;28;20049;-67
2022/11/09 17:43:31;;;;;;;12.23;1.92;;;;;;;19.80;85.66;101158.16;5087161;28;20441;-67
2022/11/09 17:46:05;;;;;;;7.78;1.80;;;;;;;19.74;86.11;101159.84;5097357;28;20026;-67
2022/11/09 17:48:32;;;;;;;6.90;1.52;;;;;;;19.67;86.48;101159.84;5095838;28;20056;-65
2022/11/09 17:50:58;;;;;;;12.45;1.80;;;;;;;19.60;86.73;101167.16;5092546;28;20405;-67
2022/11/09 17:53:24;;;;;;;9.05;2.15;;;;;;;19.54;86.91;101166.13;5092525;28;20020;-66
2022/11/09 17:55:49;;;;;;;11.02;1.90;;;;;;;19.48;87.52;101171.56;5074105;28;20051;-66
2022/11/09 17:58:15;;;;;;;9.60;1.80;;;;;;;19.43;87.28;101168.66;5092542;28;20028;-66
2022/11/09 18:00:41;;;;;;;8.10;1.67;;;;;;;19.37;88.01;101179.31;5073787;28;20070;-68
2022/11/09 18:03:06;;;;;;;7.53;1.55;;;;;;;19.32;87.66;101184.53;5093411;28;20463;-68
2022/11/09 18:05:38;;;;;;;6.95;1.58;;;;;;;19.28;88.12;101183.28;5097724;28;20028;-68
2022/11/09 18:08:07;;;;;;;10.05;1.58;;;;;;;19.22;88.62;101191.41;5097287;28;20043;-68
2022/11/09 18:10:33;;;;;;;8.32;1.83;;;;;;;19.18;88.78;101188.31;5103019;28;20447;-68
2022/11/09 18:12:59;;;;;;;8.20;1.60;;;;;;;19.13;88.94;101198.94;5069921;28;20024;-68
2022/11/09 18:15:24;;;;;;;8.40;1.80;;;;;;;19.09;89.04;101187.66;5106008;28;20172;-68
2022/11/09 18:17:49;;;;;;;10.75;1.70;;;;;;;19.06;89.08;101198.06;5105529;28;20026;-68
2022/11/09 18:20:15;;;;;;;9.10;1.83;;;;;;;19.05;89.30;101205.38;5096546;28;20031;-68
2022/11/09 18:22:40;;;;;;;9.50;1.85;;;;;;;19.00;89.73;101210.59;5104578;28;20043;-67
2022/11/09 18:25:06;;;;;;;6.50;1.60;;;;;;;18.94;89.75;101209.53;5082460;28;20027;-67
2022/11/09 18:27:31;;;;;;;15.02;1.45;;;;;;;18.92;89.84;101205.38;5075744;28;20047;-67
2022/11/09 18:29:57;;;;;;;7.82;1.80;;;;;;;18.87;90.04;101216.81;5067093;28;20702;-67
2022/11/09 18:32:22;;;;;;;5.32;1.60;;;;;;;18.84;90.14;101222.66;5099876;28;20038;-67
2022/11/09 18:34:48;;;;;;;8.35;1.70;;;;;;;18.79;90.63;101215.13;5100184;28;20024;-67
2022/11/09 18:37:13;;;;;;;8.07;1.55;;;;;;;18.75;90.72;101213.03;5107611;28;20072;-67
2022/11/09 18:39:38;;;;;;;6.28;2.13;;;;;;;18.68;90.67;101214.91;5060776;28;20051;-67
2022/11/09 18:42:04;;;;;;;6.45;1.73;;;;;;;18.64;91.02;101225.31;5087906;28;20024;-67
2022/11/09 18:44:29;;;;;;;13.85;1.85;;;;;;;18.60;91.29;101221.31;5091718;28;20380;-66
2022/11/09 18:46:55;;;;;;;10.55;2.17;;;;;;;18.56;91.33;101233.59;5086048;28;20043;-67
2022/11/09 18:49:20;;;;;;;9.25;1.60;;;;;;;18.53;91.66;101237.53;5080906;28;20015;-67
2022/11/09 18:51:45;;;;;;;5.53;1.60;;;;;;;18.53;91.66;101234.00;5099201;28;20051;-67
2022/11/09 18:54:11;;;;;;;4.78;1.75;;;;;;;18.52;91.25;101238.59;5094565;28;20094;-67
2022/11/09 18:56:36;;;;;;;9.85;1.60;;;;;;;18.52;nan;101245.88;5084292;28;20043;-67
2022/11/09 18:59:02;;;;;;;10.25;1.80;;;;;;;18.51;91.70;101252.31;5103013;28;20080;-67
2022/11/09 19:01:27;;;;;;;6.78;1.73;;;;;;;18.49;91.79;101243.56;5084825;28;20020;-67
2022/11/09 19:03:53;;;;;;;5.35;1.50;;;;;;;18.47;91.84;101246.47;5086769;28;20440;-67
2022/11/09 19:06:20;;;;;;;10.57;1.65;;;;;;;18.43;91.86;101251.47;5089417;28;20025;-67
2022/11/09 19:11:30;;;;;;;5.50;1.60;;;;;;;18.40;92.00;101254.56;5100670;28;20142;-66
2022/11/09 19:13:56;;;;;;;8.10;1.80;;;;;;;18.36;92.02;101250.59;5093804;28;20028;-67
2022/11/09 19:16:22;;;;;;;6.85;1.63;;;;;;;18.35;91.93;101261.63;5102377;28;20030;-71
2022/11/09 19:18:48;;;;;;;7.45;1.70;;;;;;;18.34;92.14;101273.47;5081631;28;20027;-70
2022/11/09 19:21:38;;;;;;;5.00;1.55;;;;;;;18.31;92.28;101268.47;5103767;28;20073;-71
2022/11/09 19:24:05;;;;;;;10.63;1.73;;;;;;;18.31;92.13;101279.28;5090953;28;20424;-71
2022/11/09 19:26:31;;;;;;;8.75;1.55;;;;;;;18.28;92.17;101283.25;5091130;28;20312;-71
2022/11/09 19:28:56;;;;;;;12.07;1.67;;;;;;;18.26;92.31;101277.16;5090751;28;20478;-71
2022/11/09 19:31:23;;;;;;;8.05;1.73;;;;;;;18.23;92.27;101275.72;5072716;28;20028;-71
2022/11/09 19:33:49;;;;;;;6.05;1.63;;;;;;;18.20;92.35;101278.00;5090925;28;20103;-71
2022/11/09 19:36:15;;;;;;;7.82;1.50;;;;;;;18.17;92.63;101295.44;5090748;28;20153;-71
2022/11/09 19:38:43;;;;;;;8.77;1.60;;;;;;;18.16;92.49;101293.78;5090586;28;20103;-70
2022/11/09 19:41:09;;;;;;;6.50;1.65;;;;;;;18.12;92.61;101300.63;5071428;28;20038;-71
2022/11/09 19:43:34;;;;;;;6.30;1.50;;;;;;;18.10;92.83;101304.56;5090400;28;20108;-70
2022/11/09 19:46:03;;;;;;;10.45;2.10;;;;;;;18.07;93.04;101311.19;5055606;28;20224;-71
2022/11/09 19:48:28;;;;;;;7.35;2.05;;;;;;;18.04;93.17;101314.28;5090491;28;20028;-71
2022/11/09 19:50:53;;;;;;;8.82;1.80;;;;;;;18.01;93.27;101312.84;5071942;28;20027;-71
2022/11/09 19:53:19;;;;;;;7.70;1.73;;;;;;;17.99;93.31;101311.34;5090236;28;20032;-70
2022/11/09 19:55:44;;;;;;;8.63;1.75;;;;;;;17.94;93.53;101325.47;5089722;28;20043;-71
2022/11/09 19:58:10;;;;;;;8.73;1.80;;;;;;;17.93;93.36;101328.38;5092306;28;20055;-70
2022/11/09 20:00:36;;;;;;;5.40;1.52;;;;;;;17.89;93.39;101347.69;5077264;28;20482;-71
2022/11/09 20:03:03;;;;;;;9.20;1.60;;;;;;;17.86;93.87;101347.22;5094480;28;20093;-71
2022/11/09 20:05:31;;;;;;;7.25;1.67;;;;;;;17.84;93.92;101350.09;5094206;28;20035;-71
2022/11/09 20:07:56;;;;;;;8.63;1.60;;;;;;;17.82;93.87;101348.63;5093780;28;20032;-71
2022/11/09 20:10:23;;;;;;;7.43;1.67;;;;;;;17.77;94.14;101360.03;5093940;28;20053;-71
2022/11/09 20:12:49;;;;;;;6.25;1.73;;;;;;;17.75;94.32;101361.25;5076086;28;20032;-71
2022/11/09 20:15:18;;;;;;;7.95;1.85;;;;;;;17.72;94.21;101373.28;5091512;28;20455;-70
2022/11/09 20:17:44;;;;;;;13.27;2.03;;;;;;;17.69;94.35;101370.97;5055322;28;20032;-71
2022/11/09 20:20:10;;;;;;;5.35;1.75;;;;;;;17.65;94.81;101378.63;5075635;28;20131;-69
2022/11/09 20:22:36;;;;;;;6.13;1.67;;;;;;;17.64;94.73;101381.53;5086043;28;20027;-69
2022/11/09 20:25:02;;;;;;;7.90;1.55;;;;;;;17.62;94.74;101380.91;5094105;28;20028;-69
2022/11/09 20:27:28;;;;;;;7.80;1.70;;;;;;;17.59;95.12;101389.38;5077991;28;20096;-69
2022/11/09 20:29:53;;;;;;;8.68;1.60;;;;;;;17.56;95.32;101393.28;5093965;28;20040;-69
2022/11/09 20:32:19;;;;;;;7.80;1.83;;;;;;;17.53;95.41;101390.97;5079601;28;20075;-69
2022/11/09 20:34:45;;;;;;;4.03;1.40;;;;;;;17.51;95.37;101407.41;5095985;28;20048;-69
2022/11/09 20:37:11;;;;;;;6.68;1.70;;;;;;;17.48;95.48;101402.38;5104956;28;20035;-69
2022/11/09 20:39:39;;;;;;;5.53;1.52;;;;;;;17.47;95.51;101405.28;5081662;28;20363;-69
2022/11/09 20:42:04;;;;;;;5.75;1.63;;;;;;;17.44;95.72;101411.88;5101701;28;20048;-69
2022/11/09 20:44:30;;;;;;;7.65;1.50;;;;;;;17.42;95.90;101402.31;5104252;28;20067;-69
2022/11/09 20:46:55;;;;;;;8.93;1.63;;;;;;;17.39;96.18;101410.78;5074397;28;20476;-70
2022/11/09 20:49:21;;;;;;;4.90;1.65;;;;;;;17.35;95.96;101423.84;5091176;28;20383;-70
2022/11/09 20:51:46;;;;;;;8.25;1.73;;;;;;;17.33;96.31;101424.03;5075533;28;20027;-69
2022/11/09 20:54:11;;;;;;;7.65;1.60;;;;;;;17.30;96.28;101431.69;5091430;28;20089;-69
2022/11/09 20:56:37;;;;;;;4.53;1.60;;;;;;;17.28;96.41;101431.88;5091625;28;20468;-69
2022/11/09 20:59:03;;;;;;;5.10;2.10;;;;;;;17.24;96.66;101438.66;5093855;28;20035;-69
2022/11/09 21:01:28;;;;;;;5.80;1.67;;;;;;;17.22;96.82;101432.63;5093778;28;20494;-69
2022/11/09 21:03:54;;;;;;;4.18;1.60;;;;;;;17.21;96.91;101440.91;5093638;28;20028;-69
2022/11/09 21:06:20;;;;;;;8.00;1.80;;;;;;;17.18;97.03;101439.44;5093487;28;20157;-69
2022/11/09 21:08:48;;;;;;;5.38;1.60;;;;;;;17.15;97.12;101443.34;5093538;28;20062;-69
2022/11/09 21:11:15;;;;;;;3.95;1.58;;;;;;;17.13;97.40;101439.19;5098503;28;20024;-69
2022/11/09 21:13:42;;;;;;;5.75;1.60;;;;;;;17.11;97.19;101439.38;5111049;28;20024;-70
2022/11/09 21:16:10;;;;;;;5.82;1.80;;;;;;;17.07;97.50;101434.53;5085894;28;20110;-70
2022/11/09 21:18:36;;;;;;;6.45;1.70;;;;;;;17.06;97.52;101447.19;5111317;28;20030;-69
2022/11/09 21:21:09;;;;;;;5.32;1.77;;;;;;;17.03;97.62;101444.88;5110481;28;20131;-69
2022/11/09 21:31:51;;;;;;;8.10;1.85;;;;;;;16.94;97.99;101454.13;5105755;28;20097;-69
2022/11/09 21:34:16;;;;;;;5.38;1.58;;;;;;;16.92;97.97;101461.53;5074515;28;20447;-69
2022/11/09 21:36:42;;;;;;;3.78;1.60;;;;;;;16.90;98.13;101461.72;5092834;28;20059;-70
2022/11/09 21:39:08;;;;;;;7.60;2.00;;;;;;;16.89;98.28;101456.53;5089863;28;20128;-69
2022/11/09 21:41:39;;;;;;;6.10;1.50;;;;;;;16.87;98.05;101462.13;5092008;28;20035;-69
2022/11/09 21:44:08;;;;;;;6.00;1.77;;;;;;;16.86;98.41;101462.31;5076055;28;20023;-69
2022/11/09 21:46:35;;;;;;;5.20;1.45;;;;;;;16.83;98.31;101468.03;5075047;28;20035;-69
2022/11/09 21:49:01;;;;;;;9.43;1.77;;;;;;;16.81;98.44;101470.91;5074509;28;20028;-70
2022/11/09 21:51:27;;;;;;;6.03;1.55;;;;;;;16.79;98.54;101476.50;5068844;28;20536;-69
2022/11/09 21:53:52;;;;;;;8.63;1.92;;;;;;;16.78;98.60;101474.84;5092663;28;20035;-70
2022/11/09 21:56:17;;;;;;;6.45;1.70;;;;;;;16.76;98.72;101473.34;5092266;28;20515;-69
2022/11/09 21:58:47;;;;;;;7.10;1.80;;;;;;;16.75;98.80;101483.31;5074027;28;20031;-69
2022/11/09 22:01:14;;;;;;;3.15;1.45;;;;;;;16.73;98.63;101476.41;5096753;28;20559;-70
2022/11/09 22:03:40;;;;;;;7.25;1.45;;;;;;;16.70;98.81;101477.63;5104876;28;20106;-70
2022/11/09 22:06:06;;;;;;;4.15;1.40;;;;;;;16.70;99.09;101477.63;5087272;28;20058;-70
2022/11/09 22:08:32;;;;;;;5.93;1.40;;;;;;;16.68;98.89;101495.00;5077654;28;20047;-69
2022/11/09 22:16:56;;;;;;;6.45;1.70;;;;;;;16.65;99.96;101498.94;5105208;28;20122;-70
2022/11/09 22:22:06;;;;;;;9.88;2.25;;;;;;;16.62;100.00;101499.28;5109152;28;20058;-70
2022/11/09 22:24:31;;;;;;;9.80;2.30;;;;;;;16.62;100.00;101504.69;5104629;28;20130;-70
2022/11/09 22:26:56;;;;;;;8.30;1.95;;;;;;;16.60;100.00;101509.44;5107099;28;20077;-70
2022/11/09 22:29:23;;;;;;;7.63;2.30;;;;;;;16.61;100.00;101519.19;5109090;28;20022;-70
2022/11/09 22:31:48;;;;;;;9.15;2.33;;;;;;;16.59;100.00;101523.94;5092790;28;20100;-70
2022/11/09 22:34:14;;;;;;;7.22;1.80;;;;;;;16.59;100.00;101527.44;5088447;28;20348;-69
2022/11/09 22:36:39;;;;;;;13.27;2.63;;;;;;;16.56;100.00;101524.28;5107042;28;20035;-69
2022/11/09 22:39:05;;;;;;;7.13;1.88;;;;;;;16.56;100.00;101517.06;5100916;28;20077;-70
2022/11/09 22:41:31;;;;;;;9.88;2.13;;;;;;;16.56;100.00;101529.69;5104888;28;20043;-70
2022/11/09 22:43:56;;;;;;;7.57;1.75;;;;;;;16.55;100.00;101533.41;5108748;28;20023;-70
2022/11/09 22:46:22;;;;;;;7.90;1.92;;;;;;;16.53;100.00;101536.28;5073861;28;20031;-70
2022/11/09 22:48:47;;;;;;;7.03;1.77;;;;;;;16.52;100.00;101537.31;5087524;28;20129;-70
2022/11/09 22:51:15;;;;;;;10.55;2.53;;;;;;;16.51;100.00;101542.88;5089836;28;20096;-70
2022/11/09 22:53:41;;;;;;;8.15;1.92;;;;;;;16.50;100.00;101541.22;5107455;28;20463;-69
2022/11/09 22:56:09;;;;;;;9.23;2.00;;;;;;;16.47;100.00;101539.72;5104464;28;20032;-70
2022/11/09 22:58:34;;;;;;;7.70;1.88;;;;;;;16.48;100.00;101545.94;5107789;28;20019;-70
2022/11/09 23:01:19;;;;;;;8.90;1.98;;;;;;;16.48;100.00;101545.94;5107065;28;20347;-69
2022/11/09 23:03:45;;;;;;;5.70;1.98;;;;;;;16.45;100.00;101549.84;5056285;28;20032;-70
2022/11/09 23:06:14;;;;;;;8.55;2.20;;;;;;;16.42;100.00;101552.91;5104342;28;20034;-70
2022/11/09 23:08:39;;;;;;;6.57;1.75;;;;;;;16.42;100.00;101569.91;5106625;28;20612;-70
2022/11/09 23:11:07;;;;;;;6.40;2.03;;;;;;;16.39;100.00;101561.34;5085857;28;20046;-70
2022/11/09 23:13:33;;;;;;;5.20;1.80;;;;;;;16.38;100.00;101571.31;5091454;28;20114;-70
2022/11/09 23:16:02;;;;;;;7.80;2.10;;;;;;;16.38;100.00;101571.31;5090902;28;20107;-69
2022/11/09 23:21:33;;;;;;;7.13;2.10;;;;;;;16.35;100.00;101577.06;5040146;28;20039;-69
2022/11/09 23:24:01;;;;;;;10.85;2.35;;;;;;;16.34;100.00;101585.31;5093002;28;20051;-70
2022/11/09 23:26:27;;;;;;;9.43;1.88;;;;;;;16.32;100.00;101581.97;5087066;28;20027;-69
2022/11/09 23:28:53;;;;;;;6.90;1.90;;;;;;;16.32;100.00;101587.38;5076813;28;20131;-70